createdAt,value
2023-04-12T00:00:27.828Z,8.9875
2023-04-12T00:01:29.391Z,8.5767
2023-04-12T00:02:31.775Z,8.3519
2023-04-12T00:03:34.335Z,8.7663
2023-04-12T00:04:36.534Z,9.3729
2023-04-12T00:05:38.727Z,9.7594
2023-04-12T00:06:41.108Z,9.8526
2023-04-12T00:07:43.393Z,9.9734
2023-04-12T00:08:45.719Z,9.9182
2023-04-12T00:09:48.044Z,9.2617
2023-04-12T00:10:50.411Z,9.5462
2023-04-12T00:11:52.741Z,9.6228
2023-04-12T00:12:55.064Z,9.3229
2023-04-12T00:13:57.649Z,9.3693
2023-04-12T00:14:59.720Z,9.6009
2023-04-12T00:16:02.099Z,9.6290
2023-04-12T00:17:04.394Z,9.3840
2023-04-12T00:18:06.719Z,9.0534
2023-04-12T00:19:09.071Z,8.8735
2023-04-12T00:20:11.402Z,8.6985
2023-04-12T00:21:13.734Z,8.4723
2023-04-12T00:22:16.075Z,8.8400
2023-04-12T00:23:18.367Z,9.2019
2023-04-12T00:24:20.750Z,9.0388
2023-04-12T00:25:23.088Z,8.6974
2023-04-12T00:26:25.465Z,8.3435
2023-04-12T00:27:27.728Z,8.3922
2023-04-12T00:28:30.059Z,8.1979
2023-04-12T00:29:32.386Z,7.9052
2023-04-12T00:30:34.701Z,8.0703
2023-04-12T00:31:37.101Z,8.0751
2023-04-12T00:32:39.397Z,8.1563
2023-04-12T00:33:41.751Z,8.4638
2023-04-12T00:34:44.039Z,8.7350
2023-04-12T00:35:46.452Z,8.4875
2023-04-12T00:36:49.321Z,8.2552
2023-04-12T00:37:51.047Z,8.0404
2023-04-12T00:38:53.375Z,7.9389
2023-04-12T00:39:55.692Z,7.9656
2023-04-12T00:40:58.115Z,7.9812
2023-04-12T00:42:00.344Z,7.8964
2023-04-12T00:43:02.736Z,7.8701
2023-04-12T00:44:05.030Z,8.0714
2023-04-12T00:45:07.365Z,7.8446
2023-04-12T00:46:09.700Z,8.0032
2023-04-12T00:47:12.031Z,8.2457
2023-04-12T00:48:14.392Z,8.2517
2023-04-12T00:49:16.672Z,7.8627
2023-04-12T00:50:19.029Z,8.0691
2023-04-12T00:51:21.341Z,8.1077
2023-04-12T00:52:23.678Z,7.9210
2023-04-12T00:53:26.070Z,7.9956
2023-04-12T00:54:28.373Z,7.7265
2023-04-12T00:55:30.723Z,7.7458
2023-04-12T00:56:33.002Z,7.7854
2023-04-12T00:57:35.371Z,7.9089
2023-04-12T00:58:37.711Z,8.1712
2023-04-12T00:59:40.015Z,7.8736
2023-04-12T01:00:42.355Z,7.8801
2023-04-12T01:01:44.699Z,8.3402
2023-04-12T01:02:47.299Z,8.0730
2023-04-12T01:03:49.540Z,7.5477
2023-04-12T01:04:51.678Z,7.3628
2023-04-12T01:05:53.988Z,7.3619
2023-04-12T01:06:56.314Z,7.5747
2023-04-12T01:07:58.639Z,7.7511
2023-04-12T01:09:00.969Z,7.7033
2023-04-12T01:10:03.327Z,7.4921
2023-04-12T01:11:05.657Z,7.5749
2023-04-12T01:12:08.025Z,7.6805
2023-04-12T01:13:10.296Z,7.6474
2023-04-12T01:14:12.629Z,7.9007
2023-04-12T01:15:14.966Z,7.9919
2023-04-12T01:16:17.338Z,7.8986
2023-04-12T01:17:19.624Z,7.6338
2023-04-12T01:18:21.921Z,7.6883
2023-04-12T01:19:24.266Z,8.0040
2023-04-12T01:20:26.610Z,7.9237
2023-04-12T01:21:28.914Z,7.4048
2023-04-12T01:22:31.254Z,7.2651
2023-04-12T01:23:33.615Z,7.5348
2023-04-12T01:24:35.939Z,7.7522
2023-04-12T01:25:38.261Z,7.9116
2023-04-12T01:26:40.613Z,7.5365
2023-04-12T01:27:42.915Z,7.6523
2023-04-12T01:28:45.267Z,7.7137
2023-04-12T01:29:47.567Z,7.6121
2023-04-12T01:30:49.924Z,7.4046
2023-04-12T01:31:52.284Z,7.6119
2023-04-12T01:32:54.600Z,7.6665
2023-04-12T01:33:57.160Z,7.3919
2023-04-12T01:34:59.260Z,7.3423
2023-04-12T01:36:01.637Z,7.5519
2023-04-12T01:37:03.910Z,8.0121
2023-04-12T01:38:06.228Z,8.3199
2023-04-12T01:39:08.635Z,8.3632
2023-04-12T01:40:10.971Z,8.1502
2023-04-12T01:41:13.283Z,7.9615
2023-04-12T01:42:15.615Z,8.0091
2023-04-12T01:43:17.924Z,8.3394
2023-04-12T01:44:20.274Z,8.2595
2023-04-12T01:45:22.625Z,8.1457
2023-04-12T01:46:24.932Z,8.2924
2023-04-12T01:47:27.396Z,8.7176
2023-04-12T01:48:29.561Z,8.6363
2023-04-12T01:49:31.953Z,8.7979
2023-04-12T01:50:34.293Z,8.9994
2023-04-12T01:51:36.577Z,9.1530
2023-04-12T01:52:38.987Z,9.2091
2023-04-12T01:53:41.243Z,9.3710
2023-04-12T01:54:43.623Z,9.3556
2023-04-12T01:55:45.941Z,9.2202
2023-04-12T01:56:48.296Z,9.3024
2023-04-12T01:57:50.600Z,9.3874
2023-04-12T01:58:52.907Z,9.4361
2023-04-12T01:59:55.247Z,9.3981
2023-04-12T02:00:57.569Z,9.2713
2023-04-12T02:01:59.942Z,9.0727
2023-04-12T02:03:02.497Z,8.9811
2023-04-12T02:04:04.770Z,8.5662
2023-04-12T02:05:06.913Z,8.3824
2023-04-12T02:06:09.247Z,8.4119
2023-04-12T02:07:11.615Z,8.3840
2023-04-12T02:08:13.900Z,8.8601
2023-04-12T02:09:16.220Z,9.0532
2023-04-12T02:10:18.579Z,8.9318
2023-04-12T02:11:20.875Z,9.1826
2023-04-12T02:12:23.204Z,9.4500
2023-04-12T02:13:25.551Z,9.5501
2023-04-12T02:14:27.916Z,9.4983
2023-04-12T02:15:30.252Z,9.1929
2023-04-12T02:16:32.714Z,8.9269
2023-04-12T02:17:34.861Z,8.9049
2023-04-12T02:18:37.193Z,8.8813
2023-04-12T02:19:39.536Z,9.0158
2023-04-12T02:20:41.846Z,9.0292
2023-04-12T02:21:44.217Z,9.2401
2023-04-12T02:22:46.531Z,8.5046
2023-04-12T02:23:48.857Z,8.5280
2023-04-12T02:24:51.188Z,8.2848
2023-04-12T02:25:53.533Z,8.2957
2023-04-12T02:26:55.891Z,8.4970
2023-04-12T02:27:58.178Z,8.6058
2023-04-12T02:29:00.520Z,8.3429
2023-04-12T02:30:02.829Z,8.1317
2023-04-12T02:31:05.180Z,8.6557
2023-04-12T02:32:07.508Z,9.0573
2023-04-12T02:33:09.906Z,9.3334
2023-04-12T02:34:12.228Z,9.4138
2023-04-12T02:35:14.474Z,9.5495
2023-04-12T02:36:16.816Z,9.2155
2023-04-12T02:37:19.146Z,8.9178
2023-04-12T02:38:21.472Z,8.9150
2023-04-12T02:39:23.818Z,9.0304
2023-04-12T02:40:26.136Z,9.0885
2023-04-12T02:41:28.445Z,9.1257
2023-04-12T02:42:30.820Z,8.7989
2023-04-12T02:43:33.175Z,9.2210
2023-04-12T02:44:35.452Z,9.6027
2023-04-12T02:45:37.798Z,9.7226
2023-04-12T02:46:40.136Z,9.4829
2023-04-12T02:47:42.454Z,9.6214
2023-04-12T02:48:44.792Z,9.6681
2023-04-12T02:49:47.070Z,9.7319
2023-04-12T02:50:49.397Z,9.1450
2023-04-12T02:51:51.758Z,9.3697
2023-04-12T02:52:54.066Z,9.5474
2023-04-12T02:53:56.601Z,9.6604
2023-04-12T02:54:58.691Z,9.5811
2023-04-12T02:56:01.046Z,9.6820
2023-04-12T02:57:03.349Z,9.6719
2023-04-12T02:58:05.691Z,9.6729
2023-04-12T02:59:08.052Z,9.6688
2023-04-12T03:00:10.341Z,9.7752
2023-04-12T03:01:12.684Z,9.6813
2023-04-12T03:02:15.084Z,9.4396
2023-04-12T03:03:17.540Z,9.6415
2023-04-12T03:04:19.823Z,9.8090
2023-04-12T03:05:21.985Z,9.7914
2023-04-12T03:06:24.311Z,9.4478
2023-04-12T03:07:26.695Z,9.1465
2023-04-12T03:08:28.975Z,9.0138
2023-04-12T03:09:31.311Z,9.2290
2023-04-12T03:10:33.648Z,9.5010
2023-04-12T03:11:35.973Z,9.6937
2023-04-12T03:12:38.297Z,9.5028
2023-04-12T03:13:40.656Z,9.8802
2023-04-12T03:14:42.989Z,9.7590
2023-04-12T03:15:45.388Z,9.4889
2023-04-12T03:16:47.617Z,9.4512
2023-04-12T03:17:50.014Z,9.2327
2023-04-12T03:18:52.272Z,8.6196
2023-04-12T03:19:54.590Z,8.3148
2023-04-12T03:20:56.954Z,9.0185
2023-04-12T03:21:59.276Z,9.4402
2023-04-12T03:23:01.756Z,9.6417
2023-04-12T03:24:03.941Z,9.4534
2023-04-12T03:25:06.260Z,9.2379
2023-04-12T03:26:08.575Z,9.2444
2023-04-12T03:27:10.921Z,8.9330
2023-04-12T03:28:13.300Z,8.9320
2023-04-12T03:29:15.564Z,9.3091
2023-04-12T03:30:17.901Z,9.3552
2023-04-12T03:31:20.257Z,9.2068
2023-04-12T03:32:22.566Z,9.4476
2023-04-12T03:33:24.881Z,9.8561
2023-04-12T03:34:27.200Z,10.1004
2023-04-12T03:35:29.539Z,10.1419
2023-04-12T03:36:31.858Z,10.0073
2023-04-12T03:37:34.227Z,9.3517
2023-04-12T03:38:36.516Z,9.4165
2023-04-12T03:39:38.829Z,9.4634
2023-04-12T03:40:41.133Z,8.9347
2023-04-12T03:41:43.473Z,8.9536
2023-04-12T03:42:45.879Z,9.0359
2023-04-12T03:43:48.122Z,9.4055
2023-04-12T03:44:50.468Z,9.5096
2023-04-12T03:45:52.806Z,9.2342
2023-04-12T03:46:55.202Z,8.9610
2023-04-12T03:47:57.536Z,8.5074
2023-04-12T03:48:59.762Z,8.5237
2023-04-12T03:51:04.420Z,8.6147
2023-04-12T03:52:06.756Z,8.2981
2023-04-12T03:53:09.091Z,8.1827
2023-04-12T03:54:11.413Z,8.3493
2023-04-12T03:55:13.767Z,8.6325
2023-04-12T03:56:16.087Z,8.8100
2023-04-12T03:57:18.418Z,8.9326
2023-04-12T03:58:20.703Z,8.7658
2023-04-12T03:59:23.033Z,8.6839
2023-04-12T04:00:25.405Z,8.5559
2023-04-12T04:01:28.312Z,8.8045
2023-04-12T04:02:30.209Z,8.9298
2023-04-12T04:03:32.401Z,9.0157
2023-04-12T04:04:34.751Z,9.0764
2023-04-12T04:05:37.009Z,8.9817
2023-04-12T04:06:39.336Z,8.5510
2023-04-12T04:07:43.560Z,8.3156
2023-04-12T04:08:46.805Z,8.1763
2023-04-12T04:09:46.314Z,8.4714
2023-04-12T04:10:48.656Z,8.9304
2023-04-12T04:11:52.553Z,8.6810
2023-04-12T04:12:53.334Z,8.7035
2023-04-12T04:13:55.995Z,8.7061
2023-04-12T04:14:57.952Z,8.9872
2023-04-12T04:16:00.384Z,9.3346
2023-04-12T04:17:02.657Z,9.4291
2023-04-12T04:18:05.117Z,9.3989
2023-04-12T04:19:07.289Z,9.1467
2023-04-12T04:20:09.630Z,9.1489
2023-04-12T04:21:11.949Z,9.2350
2023-04-12T04:22:14.304Z,8.9441
2023-04-12T04:23:16.592Z,8.4565
2023-04-12T04:24:18.926Z,8.5060
2023-04-12T04:25:21.412Z,8.3756
2023-04-12T04:26:23.585Z,8.4522
2023-04-12T04:27:25.892Z,8.5506
2023-04-12T04:28:28.209Z,8.3090
2023-04-12T04:29:30.549Z,8.3595
2023-04-12T04:30:32.866Z,8.7821
2023-04-12T04:31:35.237Z,8.9517
2023-04-12T04:32:37.539Z,9.2007
2023-04-12T04:33:39.844Z,9.1050
2023-04-12T04:34:42.480Z,8.5606
2023-04-12T04:35:44.606Z,8.2921
2023-04-12T04:36:46.908Z,8.5288
2023-04-12T04:37:49.196Z,8.8697
2023-04-12T04:38:51.529Z,8.7560
2023-04-12T04:39:53.850Z,8.7108
2023-04-12T04:40:56.188Z,8.6095
2023-04-12T04:41:58.487Z,8.2273
2023-04-12T04:43:00.818Z,8.7999
2023-04-12T04:44:03.161Z,9.0378
2023-04-12T04:45:05.494Z,8.8741
2023-04-12T04:46:07.826Z,8.8529
2023-04-12T04:47:10.128Z,8.9029
2023-04-12T04:48:12.453Z,8.9786
2023-04-12T04:49:14.758Z,9.3266
2023-04-12T04:50:17.127Z,9.6347
2023-04-12T04:51:19.425Z,9.5659
2023-04-12T04:52:21.772Z,9.2237
2023-04-12T04:53:24.094Z,8.7204
2023-04-12T04:54:26.413Z,8.7763
2023-04-12T04:55:28.818Z,8.7418
2023-04-12T04:56:31.175Z,9.1126
2023-04-12T04:57:33.444Z,8.7625
2023-04-12T04:58:35.757Z,8.5565
2023-04-12T04:59:38.088Z,8.5719
2023-04-12T05:00:40.422Z,8.8316
2023-04-12T05:01:42.780Z,8.8540
2023-04-12T05:02:45.152Z,8.5030
2023-04-12T05:03:47.469Z,8.2047
2023-04-12T05:04:49.779Z,8.3486
2023-04-12T05:05:52.073Z,8.1281
2023-04-12T05:06:54.384Z,8.0572
2023-04-12T05:07:56.745Z,7.9079
2023-04-12T05:08:59.329Z,7.9976
2023-04-12T05:10:01.379Z,8.1198
2023-04-12T05:11:03.692Z,8.4976
2023-04-12T05:12:06.017Z,8.5951
2023-04-12T05:13:09.219Z,8.5849
2023-04-12T05:14:12.525Z,8.6641
2023-04-12T05:15:13.024Z,8.6443
2023-04-12T05:16:15.402Z,8.8059
2023-04-12T05:17:17.692Z,8.9745
2023-04-12T05:18:20.038Z,9.0561
2023-04-12T05:19:22.364Z,9.1173
2023-04-12T05:20:24.689Z,8.5062
2023-04-12T05:21:26.987Z,8.0617
2023-04-12T05:22:29.329Z,8.0960
2023-04-12T05:23:31.681Z,8.0309
2023-04-12T05:24:34.008Z,8.4413
2023-04-12T05:25:36.327Z,8.7124
2023-04-12T05:26:38.626Z,8.1704
2023-04-12T05:27:40.968Z,8.2153
2023-04-12T05:28:43.349Z,8.4785
2023-04-12T05:29:45.872Z,8.4709
2023-04-12T05:30:48.043Z,8.0440
2023-04-12T05:31:50.302Z,7.9479
2023-04-12T05:32:52.717Z,7.8618
2023-04-12T05:33:55.085Z,8.1087
2023-04-12T05:34:57.305Z,8.0919
2023-04-12T05:35:59.664Z,8.5504
2023-04-12T05:37:01.949Z,8.6075
2023-04-12T05:38:04.277Z,8.7465
2023-04-12T05:39:06.605Z,8.6412
2023-04-12T05:40:08.959Z,8.5434
2023-04-12T05:41:11.271Z,8.5370
2023-04-12T05:42:13.606Z,8.3682
2023-04-12T05:43:15.953Z,7.9991
2023-04-12T05:44:18.363Z,7.8567
2023-04-12T05:45:20.671Z,8.1385
2023-04-12T05:46:23.066Z,8.5732
2023-04-12T05:47:25.352Z,8.7459
2023-04-12T05:48:27.646Z,8.7252
2023-04-12T05:49:30.033Z,8.4403
2023-04-12T05:50:32.340Z,8.2983
2023-04-12T05:51:41.418Z,8.1928
2023-04-12T05:52:36.954Z,8.5881
2023-04-12T05:53:39.318Z,8.7299
2023-04-12T05:54:41.642Z,8.2603
2023-04-12T05:55:43.961Z,8.3959
2023-04-12T05:56:46.281Z,8.5052
2023-04-12T05:57:48.604Z,8.9283
2023-04-12T05:58:50.934Z,9.1331
2023-04-12T05:59:53.253Z,9.2627
2023-04-12T06:00:55.601Z,9.0774
2023-04-12T06:01:57.962Z,8.7667
2023-04-12T06:03:00.313Z,8.4803
2023-04-12T06:04:02.832Z,8.4730
2023-04-12T06:05:05.137Z,8.7309
2023-04-12T06:06:07.244Z,8.8853
2023-04-12T06:07:09.575Z,8.8911
2023-04-12T06:08:11.926Z,8.8219
2023-04-12T06:09:14.249Z,8.3485
2023-04-12T06:10:16.583Z,8.2895
2023-04-12T06:11:18.912Z,8.3443
2023-04-12T06:12:21.238Z,8.2942
2023-04-12T06:13:23.581Z,8.3887
2023-04-12T06:14:25.929Z,8.5454
2023-04-12T06:15:28.238Z,8.5085
2023-04-12T06:16:30.597Z,8.2414
2023-04-12T06:17:32.926Z,8.0241
2023-04-12T06:18:35.228Z,7.9830
2023-04-12T06:19:37.557Z,7.9007
2023-04-12T06:20:39.962Z,8.0972
2023-04-12T06:21:42.208Z,8.1876
2023-04-12T06:22:44.547Z,7.8312
2023-04-12T06:23:46.948Z,8.1065
2023-04-12T06:24:49.213Z,8.0631
2023-04-12T06:25:51.544Z,7.8748
2023-04-12T06:26:53.879Z,8.1636
2023-04-12T06:27:56.205Z,8.2301
2023-04-12T06:28:58.770Z,8.3758
2023-04-12T06:30:00.872Z,8.4260
2023-04-12T06:31:03.261Z,8.4119
2023-04-12T06:32:05.527Z,8.2145
2023-04-12T06:33:07.862Z,8.5099
2023-04-12T06:34:10.195Z,8.6060
2023-04-12T06:35:12.531Z,8.8203
2023-04-12T06:36:14.913Z,8.9267
2023-04-12T06:37:17.166Z,8.9567
2023-04-12T06:38:19.502Z,9.2348
2023-04-12T06:39:21.850Z,8.9016
2023-04-12T06:40:24.177Z,9.1491
2023-04-12T06:41:26.502Z,9.3806
2023-04-12T06:42:28.817Z,8.9521
2023-04-12T06:43:31.142Z,8.6701
2023-04-12T06:44:33.493Z,8.4569
2023-04-12T06:45:35.805Z,8.6214
2023-04-12T06:46:38.155Z,9.1405
2023-04-12T06:47:40.497Z,9.4112
2023-04-12T06:48:42.798Z,9.5435
2023-04-12T06:49:45.122Z,9.2964
2023-04-12T06:50:47.457Z,9.3562
2023-04-12T06:51:49.816Z,9.3962
2023-04-12T06:52:52.124Z,9.4991
2023-04-12T06:53:54.462Z,9.8126
2023-04-12T06:54:57.075Z,9.8175
2023-04-12T06:55:59.115Z,9.9040
2023-04-12T06:57:01.457Z,9.8600
2023-04-12T06:58:03.780Z,9.6727
2023-04-12T06:59:06.122Z,9.4998
2023-04-12T07:00:08.430Z,9.6103
2023-04-12T07:01:10.813Z,9.2502
2023-04-12T07:02:13.121Z,9.2837
2023-04-12T07:03:15.491Z,9.6160
2023-04-12T07:04:17.963Z,9.4938
2023-04-12T07:05:20.088Z,9.2021
2023-04-12T07:06:26.052Z,8.8811
2023-04-12T07:07:25.005Z,9.0393
2023-04-12T07:08:28.645Z,9.4190
2023-04-12T07:09:29.447Z,9.8377
2023-04-12T07:10:31.748Z,9.7894
2023-04-12T07:11:34.094Z,9.3825
2023-04-12T07:12:36.432Z,9.3946
2023-04-12T07:13:38.748Z,9.6692
2023-04-12T07:14:42.409Z,9.6840
2023-04-12T07:15:43.414Z,9.7309
2023-04-12T07:16:45.872Z,9.5959
2023-04-12T07:17:48.119Z,9.5470
2023-04-12T07:18:50.443Z,9.1308
2023-04-12T07:19:52.746Z,8.9538
2023-04-12T07:20:55.079Z,9.2110
2023-04-12T07:21:57.428Z,9.7255
2023-04-12T07:22:59.753Z,9.4862
2023-04-12T07:24:02.099Z,9.8613
2023-04-12T07:25:04.411Z,10.0985
2023-04-12T07:26:06.741Z,9.9005
2023-04-12T07:27:09.070Z,9.4944
2023-04-12T07:28:11.427Z,9.8064
2023-04-12T07:29:13.750Z,10.2464
2023-04-12T07:30:16.063Z,10.2871
2023-04-12T07:31:18.423Z,10.5617
2023-04-12T07:32:20.903Z,10.2883
2023-04-12T07:33:23.216Z,9.8555
2023-04-12T07:34:25.488Z,9.8463
2023-04-12T07:35:27.740Z,9.7707
2023-04-12T07:36:30.072Z,10.0496
2023-04-12T07:37:32.405Z,10.6332
2023-04-12T07:38:34.868Z,11.0465
2023-04-12T07:39:37.109Z,11.1377
2023-04-12T07:40:39.402Z,10.9873
2023-04-12T07:41:41.748Z,11.0970
2023-04-12T07:42:44.078Z,10.8458
2023-04-12T07:43:46.425Z,10.6237
2023-04-12T07:44:48.726Z,10.3937
2023-04-12T07:45:51.162Z,10.8733
2023-04-12T07:46:53.406Z,11.0294
2023-04-12T07:47:55.765Z,11.3303
2023-04-12T07:48:58.302Z,10.8487
2023-04-12T07:50:00.408Z,10.9744
2023-04-12T07:51:02.731Z,11.2225
2023-04-12T07:52:05.070Z,11.0908
2023-04-12T07:53:07.396Z,10.6605
2023-04-12T07:54:09.834Z,10.6398
2023-04-12T07:55:12.084Z,10.9727
2023-04-12T07:56:14.394Z,11.4361
2023-04-12T07:57:16.764Z,11.5577
2023-04-12T07:58:19.074Z,11.6364
2023-04-12T07:59:21.406Z,11.3533
2023-04-12T08:00:23.749Z,11.2917
2023-04-12T08:01:26.064Z,11.6537
2023-04-12T08:02:28.531Z,12.1413
2023-04-12T08:03:30.773Z,12.5174
2023-04-12T08:04:33.085Z,12.6651
2023-04-12T08:05:35.462Z,12.6503
2023-04-12T08:06:37.725Z,12.6842
2023-04-12T08:07:40.068Z,12.3646
2023-04-12T08:08:42.391Z,12.4096
2023-04-12T08:09:44.761Z,12.2516
2023-04-12T08:10:47.119Z,12.1415
2023-04-12T08:11:49.423Z,12.6460
2023-04-12T08:12:51.720Z,12.9296
2023-04-12T08:13:54.063Z,13.0338
2023-04-12T08:14:56.392Z,12.6544
2023-04-12T08:15:58.784Z,12.4287
2023-04-12T08:17:01.068Z,12.0002
2023-04-12T08:18:03.476Z,12.3962
2023-04-12T08:19:05.731Z,12.6100
2023-04-12T08:20:08.069Z,12.0361
2023-04-12T08:21:10.428Z,11.9412
2023-04-12T08:22:13.719Z,12.3138
2023-04-12T08:23:15.085Z,12.9350
2023-04-12T08:24:17.418Z,12.8777
2023-04-12T08:25:19.751Z,12.9099
2023-04-12T08:26:22.092Z,12.5739
2023-04-12T08:27:24.429Z,12.9800
2023-04-12T08:28:26.754Z,13.2577
2023-04-12T08:29:29.086Z,13.3413
2023-04-12T08:30:31.433Z,13.2186
2023-04-12T08:31:33.812Z,13.2979
2023-04-12T08:32:36.176Z,13.4495
2023-04-12T08:33:38.438Z,13.1897
2023-04-12T08:34:40.802Z,12.9742
2023-04-12T08:35:43.144Z,13.3561
2023-04-12T08:36:45.470Z,13.5107
2023-04-12T08:37:47.793Z,13.2039
2023-04-12T08:38:50.122Z,13.0728
2023-04-12T08:39:52.479Z,13.1942
2023-04-12T08:40:54.835Z,12.6043
2023-04-12T08:41:57.139Z,12.3245
2023-04-12T08:42:59.473Z,12.4876
2023-04-12T08:44:01.883Z,12.9629
2023-04-12T08:45:04.168Z,13.4713
2023-04-12T08:46:06.503Z,13.7418
2023-04-12T08:47:08.822Z,13.5487
2023-04-12T08:48:11.168Z,12.6168
2023-04-12T08:49:13.493Z,12.3633
2023-04-12T08:50:15.835Z,12.9350
2023-04-12T08:51:18.203Z,13.2421
2023-04-12T08:52:20.511Z,13.6102
2023-04-12T08:53:22.835Z,13.4886
2023-04-12T08:54:25.190Z,13.6432
2023-04-12T08:55:27.514Z,13.2039
2023-04-12T08:56:29.859Z,13.0159
2023-04-12T08:57:32.194Z,12.8645
2023-04-12T08:58:34.526Z,12.8432
2023-04-12T08:59:36.887Z,12.7659
2023-04-12T09:00:39.203Z,13.2579
2023-04-12T09:01:41.658Z,13.4920
2023-04-12T09:02:44.074Z,13.6340
2023-04-12T09:03:46.357Z,13.7431
2023-04-12T09:04:48.672Z,13.6629
2023-04-12T09:05:50.897Z,13.7835
2023-04-12T09:06:53.229Z,14.0043
2023-04-12T09:07:55.586Z,13.5561
2023-04-12T09:08:57.919Z,13.9183
2023-04-12T09:10:00.287Z,14.3204
2023-04-12T09:11:02.589Z,14.2356
2023-04-12T09:12:04.914Z,14.3541
2023-04-12T09:13:07.293Z,14.2937
2023-04-12T09:14:09.588Z,14.4897
2023-04-12T09:15:11.947Z,14.7298
2023-04-12T09:16:14.304Z,14.8590
2023-04-12T09:17:16.624Z,15.1521
2023-04-12T09:18:18.986Z,14.8299
2023-04-12T09:19:21.285Z,15.1445
2023-04-12T09:20:23.957Z,15.2690
2023-04-12T09:21:25.953Z,15.3688
2023-04-12T09:22:28.301Z,14.9430
2023-04-12T09:23:30.626Z,15.2832
2023-04-12T09:24:32.972Z,15.2857
2023-04-12T09:25:35.322Z,15.2787
2023-04-12T09:26:37.661Z,15.4679
2023-04-12T09:27:40.231Z,14.9130
2023-04-12T09:28:42.332Z,15.1862
2023-04-12T09:29:44.673Z,15.8290
2023-04-12T09:30:47.029Z,16.0204
2023-04-12T09:31:49.480Z,15.7129
2023-04-12T09:32:51.728Z,15.8548
2023-04-12T09:33:54.034Z,15.4169
2023-04-12T09:34:56.370Z,15.6876
2023-04-12T09:35:58.746Z,15.7178
2023-04-12T09:37:01.054Z,15.8031
2023-04-12T09:38:03.383Z,15.7947
2023-04-12T09:39:05.761Z,16.0508
2023-04-12T09:40:08.057Z,16.1962
2023-04-12T09:41:10.409Z,15.9477
2023-04-12T09:42:25.517Z,15.8756
2023-04-12T09:43:15.112Z,16.2176
2023-04-12T09:44:17.425Z,16.2014
2023-04-12T09:45:19.767Z,16.0407
2023-04-12T09:46:22.183Z,15.9692
2023-04-12T09:47:24.497Z,16.2486
2023-04-12T09:48:26.814Z,16.6089
2023-04-12T09:49:29.115Z,16.6081
2023-04-12T09:50:31.572Z,16.2480
2023-04-12T09:51:33.897Z,16.0541
2023-04-12T09:52:36.251Z,15.7449
2023-04-12T09:53:38.567Z,15.5640
2023-04-12T09:54:40.908Z,15.8076
2023-04-12T09:55:43.245Z,16.2127
2023-04-12T09:56:45.557Z,16.3797
2023-04-12T09:57:47.914Z,16.2053
2023-04-12T09:58:50.254Z,16.1529
2023-04-12T09:59:52.605Z,16.2702
2023-04-12T10:00:54.933Z,16.4822
2023-04-12T10:01:57.375Z,16.1995
2023-04-12T10:02:59.887Z,15.9220
2023-04-12T10:04:02.429Z,15.7499
2023-04-12T10:05:04.520Z,15.5584
2023-04-12T10:06:06.650Z,15.7063
2023-04-12T10:07:08.987Z,15.9984
2023-04-12T10:08:11.317Z,16.0151
2023-04-12T10:09:13.653Z,15.9771
2023-04-12T10:10:16.004Z,16.0149
2023-04-12T10:11:18.343Z,15.8976
2023-04-12T10:12:20.695Z,15.8585
2023-04-12T10:13:23.012Z,15.7162
2023-04-12T10:14:25.336Z,15.5899
2023-04-12T10:15:27.696Z,15.6659
2023-04-12T10:16:30.041Z,15.6737
2023-04-12T10:17:32.377Z,15.4980
2023-04-12T10:18:34.699Z,15.3043
2023-04-12T10:19:37.034Z,15.2433
2023-04-12T10:20:39.356Z,15.1330
2023-04-12T10:21:41.677Z,14.9153
2023-04-12T10:22:44.042Z,14.6758
2023-04-12T10:23:46.360Z,15.2068
2023-04-12T10:24:48.717Z,15.2787
2023-04-12T10:25:51.065Z,15.3247
2023-04-12T10:26:53.392Z,15.3867
2023-04-12T10:27:55.732Z,15.6090
2023-04-12T10:28:58.150Z,15.7201
2023-04-12T10:30:00.419Z,15.9734
2023-04-12T10:31:02.752Z,16.4696
2023-04-12T10:32:05.118Z,16.1921
2023-04-12T10:33:07.449Z,16.4012
2023-04-12T10:34:09.771Z,16.7999
2023-04-12T10:35:12.113Z,16.8494
2023-04-12T10:36:14.481Z,17.1579
2023-04-12T10:37:16.794Z,17.4102
2023-04-12T10:38:19.212Z,17.4408
2023-04-12T10:39:21.448Z,17.0963
2023-04-12T10:40:23.808Z,16.8644
2023-04-12T10:41:26.138Z,16.7167
2023-04-12T10:42:28.509Z,16.9875
2023-04-12T10:43:30.831Z,17.5552
2023-04-12T10:44:33.228Z,17.6076
2023-04-12T10:45:35.504Z,17.0834
2023-04-12T10:46:37.975Z,17.1799
2023-04-12T10:47:40.253Z,17.3557
2023-04-12T10:48:42.543Z,17.1277
2023-04-12T10:49:44.891Z,17.6464
2023-04-12T10:50:47.219Z,18.0607
2023-04-12T10:51:49.552Z,17.9826
2023-04-12T10:52:51.932Z,17.7466
2023-04-12T10:53:54.290Z,17.4956
2023-04-12T10:54:56.604Z,17.7703
2023-04-12T10:55:58.903Z,17.7392
2023-04-12T10:57:01.281Z,17.8477
2023-04-12T10:58:03.601Z,17.7117
2023-04-12T10:59:05.988Z,18.0245
2023-04-12T11:00:08.273Z,17.8000
2023-04-12T11:01:10.882Z,17.3693
2023-04-12T11:02:13.347Z,17.3659
2023-04-12T11:03:15.379Z,17.2709
2023-04-12T11:04:18.077Z,16.8876
2023-04-12T11:05:20.040Z,16.8597
2023-04-12T11:06:27.520Z,17.4728
2023-04-12T11:07:24.645Z,17.3796
2023-04-12T11:08:26.989Z,17.1816
2023-04-12T11:09:29.374Z,16.9967
2023-04-12T11:10:31.670Z,17.4221
2023-04-12T11:11:34.037Z,17.3266
2023-04-12T11:12:36.357Z,17.5747
2023-04-12T11:13:38.674Z,17.7187
2023-04-12T11:14:41.071Z,17.2524
2023-04-12T11:15:43.365Z,16.8065
2023-04-12T11:16:45.759Z,16.4423
2023-04-12T11:17:48.114Z,15.7702
2023-04-12T11:18:50.356Z,15.9160
2023-04-12T11:19:52.733Z,16.3501
2023-04-12T11:20:55.066Z,16.2155
2023-04-12T11:21:57.422Z,16.8044
2023-04-12T11:22:59.712Z,16.8490
2023-04-12T11:24:02.133Z,16.5886
2023-04-12T11:25:04.449Z,16.7079
2023-04-12T11:26:06.771Z,15.9121
2023-04-12T11:27:09.071Z,15.5999
2023-04-12T11:28:27.413Z,15.3128
2023-04-12T11:29:13.753Z,15.5080
2023-04-12T11:30:16.117Z,15.3859
2023-04-12T11:31:18.497Z,15.3512
2023-04-12T11:32:20.973Z,15.9557
2023-04-12T11:33:23.118Z,16.6533
2023-04-12T11:34:25.457Z,16.8523
2023-04-12T11:35:27.815Z,16.5664
2023-04-12T11:36:30.132Z,16.4651
2023-04-12T11:37:32.488Z,16.1921
2023-04-12T11:38:34.826Z,16.1021
2023-04-12T11:39:37.137Z,15.8577
2023-04-12T11:40:39.493Z,15.9163
2023-04-12T11:41:41.818Z,16.2139
2023-04-12T11:42:44.188Z,16.5855
2023-04-12T11:43:46.496Z,16.5483
2023-04-12T11:44:57.737Z,16.2459
2023-04-12T11:45:51.183Z,15.6537
2023-04-12T11:46:53.512Z,15.4101
2023-04-12T11:47:55.993Z,15.2043
2023-04-12T11:48:58.300Z,15.2598
2023-04-12T11:50:00.527Z,15.2368
2023-04-12T11:51:11.357Z,14.9644
2023-04-12T11:52:05.207Z,14.9489
2023-04-12T11:53:07.562Z,15.0535
2023-04-12T11:54:09.894Z,15.6632
2023-04-12T11:55:12.234Z,15.3405
2023-04-12T11:56:14.572Z,15.5743
2023-04-12T11:57:16.912Z,15.6040
2023-04-12T11:58:19.257Z,15.4761
2023-04-12T11:59:21.654Z,15.4005
2023-04-12T12:00:23.941Z,15.7953
2023-04-12T12:01:26.282Z,15.8115
2023-04-12T12:02:33.150Z,15.4005
2023-04-12T12:03:31.362Z,14.8412
2023-04-12T12:04:33.522Z,14.5425
2023-04-12T12:05:35.873Z,13.9433
2023-04-12T12:06:38.383Z,14.4315
2023-04-12T12:07:40.333Z,14.8561
2023-04-12T12:08:42.655Z,15.0790
2023-04-12T12:09:44.997Z,14.1116
2023-04-12T12:11:49.680Z,13.9930
2023-04-12T12:12:52.033Z,13.7112
2023-04-12T12:13:54.383Z,13.6330
2023-04-12T12:14:56.709Z,13.9090
2023-04-12T12:15:59.089Z,14.2806
2023-04-12T12:17:01.377Z,14.2239
2023-04-12T12:18:03.765Z,14.4525
2023-04-12T12:19:06.075Z,14.5008
2023-04-12T12:20:08.402Z,14.4700
2023-04-12T12:21:10.750Z,14.8656
2023-04-12T12:22:13.092Z,14.9480
2023-04-12T12:23:15.437Z,14.8151
2023-04-12T12:24:17.776Z,14.8034
2023-04-12T12:25:20.139Z,14.8993
2023-04-12T12:26:22.518Z,14.7058
2023-04-12T12:27:24.822Z,14.2638
2023-04-12T12:28:27.154Z,14.6522
2023-04-12T12:29:29.465Z,14.7943
2023-04-12T12:30:31.802Z,14.8580
2023-04-12T12:31:34.169Z,15.0712
2023-04-12T12:32:36.535Z,15.3884
2023-04-12T12:33:46.462Z,15.3516
2023-04-12T12:34:41.204Z,15.4978
2023-04-12T12:35:43.527Z,15.3686
2023-04-12T12:36:45.851Z,15.3430
2023-04-12T12:37:48.195Z,15.3886
2023-04-12T12:38:50.541Z,14.5511
2023-04-12T12:39:52.887Z,14.4725
2023-04-12T12:40:55.220Z,14.6269
2023-04-12T12:41:57.570Z,14.7970
2023-04-12T12:42:59.919Z,14.4542
2023-04-12T12:44:02.276Z,14.1721
2023-04-12T12:45:04.611Z,14.1608
2023-04-12T12:46:06.956Z,14.0830
2023-04-12T12:47:14.021Z,14.1319
2023-04-12T12:48:11.740Z,14.3855
2023-04-12T12:49:13.962Z,14.2981